Time;durP1;ratioP1;P1;durP2;ratioP2;P2;SDS_P1;SDS_P2;PMS_P1;PMS_P2;Temp;Humidity;BMP_temperature;BMP_pressure;BME280_temperature;BME280_humidity;BME280_pressure;Samples;Min_cycle;Max_cycle;Signal;HPM_P1;HPM_P2
2022/03/05 00:00:40;;;;;;;14.00;8.65;;;;;;;;;;5053278;28;20120;-75
2022/03/05 00:03:07;;;;;;;14.00;8.75;;;;;;;;;;5052897;28;20128;-74
2022/03/05 00:05:34;;;;;;;14.70;8.70;;;;;;;;;;5053159;28;20048;-74
2022/03/05 00:08:00;;;;;;;12.55;8.05;;;;;;;;;;5052918;28;20052;-75
2022/03/05 00:10:26;;;;;;;14.50;9.10;;;;;;;;;;5052135;28;20077;-76
2022/03/05 00:12:52;;;;;;;14.68;8.18;;;;;;;;;;5053330;28;20374;-76
2022/03/05 00:15:20;;;;;;;13.05;8.60;;;;;;;;;;5052011;28;20094;-75
2022/03/05 00:17:47;;;;;;;13.52;8.40;;;;;;;;;;5053047;28;20106;-75
2022/03/05 00:20:13;;;;;;;15.23;8.93;;;;;;;;;;5052831;28;20049;-75
2022/03/05 00:22:39;;;;;;;16.70;9.23;;;;;;;;;;5051551;28;20052;-75
2022/03/05 00:25:06;;;;;;;16.00;9.45;;;;;;;;;;5051457;28;20132;-76
2022/03/05 00:27:32;;;;;;;15.60;8.88;;;;;;;;;;5052858;28;20091;-75
2022/03/05 00:29:58;;;;;;;15.25;9.45;;;;;;;;;;5052595;28;20049;-74
2022/03/05 00:32:24;;;;;;;16.52;9.40;;;;;;;;;;5052651;28;20048;-75
2022/03/05 00:34:51;;;;;;;15.82;9.73;;;;;;;;;;5034740;28;20427;-75
2022/03/05 00:37:17;;;;;;;15.18;9.05;;;;;;;;;;5034816;28;20518;-75
2022/03/05 00:39:43;;;;;;;13.77;8.63;;;;;;;;;;5034937;28;20047;-75
2022/03/05 00:42:09;;;;;;;14.82;8.88;;;;;;;;;;5034701;28;20047;-73
2022/03/05 00:44:36;;;;;;;16.25;9.25;;;;;;;;;;5052647;28;20041;-75
2022/03/05 00:47:02;;;;;;;16.33;8.70;;;;;;;;;;5052465;28;20128;-74
2022/03/05 00:49:28;;;;;;;15.63;8.95;;;;;;;;;;5053008;28;20041;-75
2022/03/05 00:51:54;;;;;;;14.68;8.73;;;;;;;;;;5052053;28;20037;-75
2022/03/05 00:54:20;;;;;;;15.38;8.57;;;;;;;;;;5052497;28;20095;-75
2022/03/05 00:56:46;;;;;;;14.35;8.50;;;;;;;;;;5034711;28;20047;-73
2022/03/05 00:59:15;;;;;;;13.13;7.93;;;;;;;;;;5018330;28;20052;-74
2022/03/05 01:01:41;;;;;;;14.18;7.90;;;;;;;;;;5052343;28;20037;-75
2022/03/05 01:04:07;;;;;;;13.52;8.45;;;;;;;;;;5052219;28;20041;-75
2022/03/05 01:06:34;;;;;;;13.32;8.48;;;;;;;;;;5052638;28;20067;-75
2022/03/05 01:09:01;;;;;;;15.80;8.40;;;;;;;;;;5052297;28;20478;-75
2022/03/05 01:11:27;;;;;;;14.23;8.70;;;;;;;;;;5052428;28;20084;-75
2022/03/05 01:13:53;;;;;;;13.65;8.32;;;;;;;;;;5052176;28;20044;-75
2022/03/05 01:16:20;;;;;;;15.77;8.60;;;;;;;;;;5052212;28;20124;-75
2022/03/05 01:18:46;;;;;;;15.95;8.38;;;;;;;;;;5034217;28;20041;-75
2022/03/05 01:21:12;;;;;;;14.50;8.40;;;;;;;;;;5052263;28;20367;-74
2022/03/05 01:23:38;;;;;;;13.35;8.32;;;;;;;;;;5052345;28;20037;-73
2022/03/05 01:26:04;;;;;;;16.35;8.75;;;;;;;;;;5018273;28;20049;-75
2022/03/05 01:28:30;;;;;;;14.18;8.48;;;;;;;;;;5038974;28;20375;-76
2022/03/05 01:30:56;;;;;;;13.90;8.32;;;;;;;;;;5053459;28;20394;-74
2022/03/05 01:33:22;;;;;;;13.80;7.90;;;;;;;;;;5052807;28;20076;-75
2022/03/05 01:35:49;;;;;;;16.50;8.88;;;;;;;;;;5053868;28;20115;-75
2022/03/05 01:38:15;;;;;;;17.17;9.45;;;;;;;;;;5055706;28;20044;-74
2022/03/05 01:40:41;;;;;;;14.50;8.98;;;;;;;;;;5055802;28;20037;-75
2022/03/05 01:43:08;;;;;;;13.93;8.68;;;;;;;;;;5055767;28;20049;-75
2022/03/05 01:45:35;;;;;;;16.50;8.07;;;;;;;;;;5055830;28;20047;-74
2022/03/05 01:48:01;;;;;;;15.50;9.38;;;;;;;;;;5054337;28;20051;-74
2022/03/05 01:50:28;;;;;;;16.50;9.10;;;;;;;;;;5054822;28;20040;-74
2022/03/05 01:52:54;;;;;;;16.20;9.48;;;;;;;;;;5054502;28;20083;-75
2022/03/05 01:55:20;;;;;;;14.77;8.35;;;;;;;;;;5055767;28;20048;-75
2022/03/05 01:57:46;;;;;;;16.63;9.55;;;;;;;;;;5055468;28;20127;-74
2022/03/05 02:00:13;;;;;;;14.73;9.13;;;;;;;;;;5037929;28;20394;-73
2022/03/05 02:02:40;;;;;;;15.38;8.55;;;;;;;;;;5037350;28;20494;-74
2022/03/05 02:05:06;;;;;;;15.23;8.48;;;;;;;;;;5055379;28;20148;-75
2022/03/05 02:07:32;;;;;;;14.10;8.80;;;;;;;;;;5055458;28;20045;-75
2022/03/05 02:09:58;;;;;;;16.50;9.18;;;;;;;;;;5055338;28;20505;-74
2022/03/05 02:12:28;;;;;;;14.73;8.90;;;;;;;;;;5054348;28;20045;-74
2022/03/05 02:14:54;;;;;;;15.30;9.35;;;;;;;;;;5055213;28;20509;-75
2022/03/05 02:17:20;;;;;;;14.82;8.55;;;;;;;;;;5054888;28;20120;-74
2022/03/05 02:19:46;;;;;;;15.30;8.32;;;;;;;;;;5053995;28;20053;-75
2022/03/05 02:22:12;;;;;;;15.77;8.63;;;;;;;;;;5055094;28;20033;-75
2022/03/05 02:24:39;;;;;;;14.35;8.73;;;;;;;;;;5054908;28;20037;-74
2022/03/05 02:27:05;;;;;;;17.63;9.60;;;;;;;;;;5054867;28;20040;-74
2022/03/05 02:29:32;;;;;;;15.65;9.13;;;;;;;;;;5071648;28;20056;-75
2022/03/05 02:31:58;;;;;;;15.02;8.73;;;;;;;;;;5074632;28;20098;-76
2022/03/05 02:34:24;;;;;;;15.98;8.98;;;;;;;;;;5075020;28;20127;-75
2022/03/05 02:36:51;;;;;;;14.45;8.98;;;;;;;;;;5074572;28;20539;-76
2022/03/05 02:39:17;;;;;;;17.75;9.05;;;;;;;;;;5056980;28;20091;-75
2022/03/05 02:41:43;;;;;;;17.55;9.32;;;;;;;;;;5074581;28;20059;-74
2022/03/05 02:44:10;;;;;;;16.80;9.70;;;;;;;;;;5074642;28;20429;-74
2022/03/05 02:46:36;;;;;;;17.63;10.07;;;;;;;;;;5074532;28;20045;-74
2022/03/05 02:49:03;;;;;;;17.00;8.98;;;;;;;;;;5074418;28;20049;-74
2022/03/05 02:51:29;;;;;;;17.50;9.45;;;;;;;;;;5074554;28;20042;-75
2022/03/05 02:53:56;;;;;;;15.68;9.40;;;;;;;;;;5074338;28;20381;-75
2022/03/05 02:56:22;;;;;;;16.30;9.52;;;;;;;;;;5056682;28;20461;-75
2022/03/05 02:58:48;;;;;;;14.63;9.00;;;;;;;;;;5074071;28;20129;-75
2022/03/05 03:01:14;;;;;;;16.00;9.43;;;;;;;;;;5074513;28;20045;-75
2022/03/05 03:03:41;;;;;;;17.33;9.90;;;;;;;;;;5056252;28;20055;-76
2022/03/05 03:06:07;;;;;;;15.60;9.77;;;;;;;;;;5074328;28;20109;-73
2022/03/05 03:08:33;;;;;;;17.30;9.73;;;;;;;;;;5074237;28;20123;-74
2022/03/05 03:11:00;;;;;;;17.23;9.50;;;;;;;;;;5074158;28;20510;-75
2022/03/05 03:13:26;;;;;;;17.63;9.55;;;;;;;;;;5056353;28;20044;-74
2022/03/05 03:15:52;;;;;;;17.20;8.52;;;;;;;;;;5074200;28;20040;-75
2022/03/05 03:18:18;;;;;;;16.98;9.85;;;;;;;;;;5074090;28;20052;-74
2022/03/05 03:20:44;;;;;;;15.73;9.40;;;;;;;;;;5073950;28;20101;-74
2022/03/05 03:23:11;;;;;;;16.08;9.73;;;;;;;;;;5073828;28;20481;-75
2022/03/05 03:25:38;;;;;;;17.50;9.55;;;;;;;;;;5055680;28;20044;-74
2022/03/05 03:28:05;;;;;;;15.48;9.05;;;;;;;;;;5073322;28;20056;-75
2022/03/05 03:30:31;;;;;;;17.70;9.65;;;;;;;;;;5073718;28;20056;-75
2022/03/05 03:32:57;;;;;;;17.17;9.75;;;;;;;;;;5073738;28;20174;-75
2022/03/05 03:35:23;;;;;;;16.52;9.98;;;;;;;;;;5073470;28;20072;-74
2022/03/05 03:37:50;;;;;;;15.50;9.45;;;;;;;;;;5073431;28;20123;-74
2022/03/05 03:40:17;;;;;;;17.92;10.23;;;;;;;;;;5073496;28;20040;-74
2022/03/05 03:42:43;;;;;;;15.02;8.65;;;;;;;;;;5073196;28;20464;-74
2022/03/05 03:45:10;;;;;;;14.70;7.68;;;;;;;;;;5055742;28;20051;-74
2022/03/05 03:47:37;;;;;;;17.52;9.38;;;;;;;;;;5073484;28;20098;-75
2022/03/05 03:50:05;;;;;;;17.85;10.10;;;;;;;;;;5073464;28;20501;-74
2022/03/05 03:52:31;;;;;;;19.60;9.85;;;;;;;;;;5055587;28;20037;-74
2022/03/05 03:54:57;;;;;;;15.50;9.20;;;;;;;;;;5073187;28;20044;-74
2022/03/05 03:57:23;;;;;;;18.17;9.48;;;;;;;;;;5073041;28;20119;-75
2022/03/05 03:59:51;;;;;;;21.17;10.25;;;;;;;;;;5072654;28;20048;-75
2022/03/05 04:02:22;;;;;;;19.02;9.75;;;;;;;;;;5073151;28;20051;-74
2022/03/05 04:04:48;;;;;;;16.38;9.55;;;;;;;;;;5072880;28;20466;-74
2022/03/05 04:09:59;;;;;;;16.83;9.25;;;;;;;;;;5072932;28;20083;-74
2022/03/05 04:12:25;;;;;;;16.42;9.40;;;;;;;;;;5073214;28;20102;-74
2022/03/05 04:14:51;;;;;;;18.90;9.52;;;;;;;;;;5072861;28;20438;-75
2022/03/05 04:17:17;;;;;;;17.13;9.25;;;;;;;;;;5072868;28;20044;-74
2022/03/05 04:19:44;;;;;;;18.38;9.00;;;;;;;;;;5055165;28;20048;-74
2022/03/05 04:22:10;;;;;;;19.10;9.82;;;;;;;;;;5054648;28;20127;-74
2022/03/05 04:24:37;;;;;;;17.50;9.27;;;;;;;;;;5072604;28;20486;-75
2022/03/05 04:27:03;;;;;;;17.77;9.23;;;;;;;;;;5072571;28;20398;-74
2022/03/05 04:29:30;;;;;;;17.35;9.43;;;;;;;;;;5051307;28;20049;-74
2022/03/05 04:31:56;;;;;;;18.00;9.63;;;;;;;;;;5052621;28;20095;-73
2022/03/05 04:34:22;;;;;;;21.52;9.82;;;;;;;;;;5052738;28;20044;-73
2022/03/05 04:36:48;;;;;;;16.58;9.32;;;;;;;;;;5052488;28;20057;-74
2022/03/05 04:39:14;;;;;;;18.63;9.48;;;;;;;;;;5051775;28;20044;-74
2022/03/05 04:41:41;;;;;;;16.88;9.15;;;;;;;;;;5052245;28;20479;-75
2022/03/05 04:44:07;;;;;;;15.88;8.80;;;;;;;;;;5052373;28;20076;-75
2022/03/05 04:46:33;;;;;;;14.32;8.88;;;;;;;;;;5052575;28;20083;-74
2022/03/05 04:49:00;;;;;;;16.13;8.75;;;;;;;;;;5051214;28;20055;-75
2022/03/05 04:51:26;;;;;;;13.35;7.78;;;;;;;;;;5051299;28;20204;-75
2022/03/05 04:53:52;;;;;;;14.20;8.20;;;;;;;;;;5052240;28;20052;-74
2022/03/05 04:56:18;;;;;;;14.85;8.68;;;;;;;;;;5051322;28;20552;-74
2022/03/05 04:58:44;;;;;;;16.67;8.25;;;;;;;;;;5051372;28;20063;-74
2022/03/05 05:01:10;;;;;;;14.40;8.07;;;;;;;;;;5052441;28;20041;-74
2022/03/05 05:03:37;;;;;;;14.75;8.15;;;;;;;;;;5050994;28;20111;-74
2022/03/05 05:06:05;;;;;;;14.07;7.95;;;;;;;;;;5052123;28;20432;-74
2022/03/05 05:08:32;;;;;;;16.25;8.48;;;;;;;;;;5052381;28;20110;-75
2022/03/05 05:10:58;;;;;;;15.80;8.77;;;;;;;;;;5052657;28;20052;-74
2022/03/05 05:13:24;;;;;;;14.82;8.70;;;;;;;;;;5056436;28;20083;-75
2022/03/05 05:15:50;;;;;;;15.23;8.52;;;;;;;;;;5056560;28;20084;-73
2022/03/05 05:18:17;;;;;;;17.02;8.38;;;;;;;;;;5055262;28;20429;-74
2022/03/05 05:20:43;;;;;;;15.95;9.43;;;;;;;;;;5055051;28;20129;-75
2022/03/05 05:23:09;;;;;;;18.13;8.85;;;;;;;;;;5056211;28;20094;-74
2022/03/05 05:25:35;;;;;;;23.15;14.32;;;;;;;;;;5054844;28;20044;-74
2022/03/05 05:28:01;;;;;;;22.40;13.63;;;;;;;;;;5057689;28;20049;-74
2022/03/05 05:30:27;;;;;;;29.00;17.38;;;;;;;;;;5075846;28;20378;-74
2022/03/05 05:32:54;;;;;;;33.38;19.55;;;;;;;;;;5075896;28;20385;-74
2022/03/05 05:35:20;;;;;;;34.33;21.83;;;;;;;;;;5076051;28;20047;-75
2022/03/05 05:37:46;;;;;;;26.10;16.23;;;;;;;;;;5058041;28;20127;-74
2022/03/05 05:40:12;;;;;;;41.25;22.98;;;;;;;;;;5075865;28;20048;-75
2022/03/05 05:42:38;;;;;;;35.10;20.85;;;;;;;;;;5075683;28;20047;-75
2022/03/05 05:45:05;;;;;;;33.28;21.08;;;;;;;;;;5075643;28;20055;-75
2022/03/05 05:47:31;;;;;;;24.02;13.60;;;;;;;;;;5075613;28;20093;-75
2022/03/05 05:49:57;;;;;;;19.77;13.05;;;;;;;;;;5075762;28;20443;-75
2022/03/05 05:52:23;;;;;;;22.30;12.68;;;;;;;;;;5075643;28;20044;-74
2022/03/05 05:54:50;;;;;;;19.80;11.13;;;;;;;;;;5075316;28;20474;-75
2022/03/05 05:57:16;;;;;;;16.92;9.93;;;;;;;;;;5041101;28;20128;-75
2022/03/05 05:59:42;;;;;;;18.55;9.20;;;;;;;;;;5057754;28;20123;-75
2022/03/05 06:02:08;;;;;;;16.70;9.40;;;;;;;;;;5075205;28;20147;-74
2022/03/05 06:04:34;;;;;;;17.45;9.23;;;;;;;;;;5075403;28;20120;-74
2022/03/05 06:07:00;;;;;;;16.92;8.95;;;;;;;;;;5074774;28;20135;-74
2022/03/05 06:09:26;;;;;;;16.33;9.30;;;;;;;;;;5074400;28;20079;-75
2022/03/05 06:11:53;;;;;;;17.45;9.70;;;;;;;;;;5057445;28;20051;-75
2022/03/05 06:14:19;;;;;;;15.93;9.40;;;;;;;;;;5075014;28;20127;-74
2022/03/05 06:16:45;;;;;;;16.15;9.13;;;;;;;;;;5074693;28;20546;-76
2022/03/05 06:19:12;;;;;;;23.75;11.13;;;;;;;;;;5040967;28;20544;-75
2022/03/05 06:21:38;;;;;;;44.25;20.83;;;;;;;;;;5074978;28;20132;-75
2022/03/05 06:24:04;;;;;;;36.03;18.98;;;;;;;;;;5056430;28;20079;-75
2022/03/05 06:26:34;;;;;;;25.08;13.85;;;;;;;;;;5056981;28;20056;-74
2022/03/05 06:29:00;;;;;;;23.75;13.45;;;;;;;;;;5074846;28;20048;-73
2022/03/05 06:31:26;;;;;;;20.15;11.77;;;;;;;;;;5056968;28;20090;-74
2022/03/05 06:33:52;;;;;;;21.98;11.18;;;;;;;;;;5074974;28;20127;-75
2022/03/05 06:36:18;;;;;;;19.58;10.77;;;;;;;;;;5057031;28;20139;-74
2022/03/05 06:38:45;;;;;;;20.05;11.32;;;;;;;;;;5074745;28;20394;-75
2022/03/05 06:41:11;;;;;;;22.80;12.25;;;;;;;;;;5074732;28;20041;-75
2022/03/05 06:43:37;;;;;;;21.80;12.60;;;;;;;;;;5074481;28;20048;-74
2022/03/05 06:46:03;;;;;;;19.25;11.95;;;;;;;;;;5074624;28;20056;-75
2022/03/05 06:48:29;;;;;;;18.35;10.60;;;;;;;;;;5074710;28;20125;-75
2022/03/05 06:50:56;;;;;;;22.15;13.15;;;;;;;;;;5074787;28;20044;-76
2022/03/05 06:53:22;;;;;;;17.70;10.93;;;;;;;;;;5074282;28;20044;-74
2022/03/05 06:55:48;;;;;;;20.80;11.30;;;;;;;;;;5074455;28;20045;-76
2022/03/05 06:58:17;;;;;;;18.42;9.80;;;;;;;;;;5074457;28;20133;-75
2022/03/05 07:00:43;;;;;;;15.55;9.35;;;;;;;;;;5074403;28;20037;-73
2022/03/05 07:03:09;;;;;;;18.33;10.93;;;;;;;;;;5074253;28;20041;-74
2022/03/05 07:05:36;;;;;;;18.50;11.13;;;;;;;;;;5074194;28;20041;-75
2022/03/05 07:08:02;;;;;;;16.60;10.23;;;;;;;;;;5074230;28;20397;-74
2022/03/05 07:10:28;;;;;;;19.25;11.50;;;;;;;;;;5074076;28;20554;-75
2022/03/05 07:12:54;;;;;;;19.48;10.25;;;;;;;;;;5056419;28;20048;-75
2022/03/05 07:15:20;;;;;;;20.52;10.95;;;;;;;;;;5056391;28;20053;-76
2022/03/05 07:17:48;;;;;;;18.60;11.00;;;;;;;;;;5074194;28;20040;-74
2022/03/05 07:20:14;;;;;;;20.02;10.68;;;;;;;;;;5073709;28;20474;-75
2022/03/05 07:22:40;;;;;;;18.80;11.02;;;;;;;;;;5073875;28;20139;-75
2022/03/05 07:25:06;;;;;;;19.52;11.63;;;;;;;;;;5073797;28;20052;-75
2022/03/05 07:27:32;;;;;;;18.90;10.23;;;;;;;;;;5073667;28;20079;-76
2022/03/05 07:29:58;;;;;;;15.73;10.57;;;;;;;;;;5073576;28;20055;-76
2022/03/05 07:32:24;;;;;;;18.52;11.13;;;;;;;;;;5073597;28;20045;-76
2022/03/05 07:34:50;;;;;;;20.35;11.63;;;;;;;;;;5072585;28;20044;-75
2022/03/05 07:37:16;;;;;;;18.20;11.18;;;;;;;;;;5073558;28;20044;-75
2022/03/05 07:39:43;;;;;;;18.42;11.07;;;;;;;;;;5073384;28;20040;-75
2022/03/05 07:42:09;;;;;;;16.45;10.45;;;;;;;;;;5055654;28;20392;-76
2022/03/05 07:44:35;;;;;;;15.85;10.75;;;;;;;;;;5055922;28;20062;-76
2022/03/05 07:47:01;;;;;;;17.92;10.70;;;;;;;;;;5073453;28;20055;-76
2022/03/05 07:49:27;;;;;;;18.50;11.13;;;;;;;;;;5038792;28;20131;-76
2022/03/05 07:51:56;;;;;;;17.17;11.25;;;;;;;;;;5073132;28;20384;-75
2022/03/05 07:54:22;;;;;;;17.40;10.90;;;;;;;;;;5055499;28;20110;-74
2022/03/05 07:56:55;;;;;;;17.30;12.13;;;;;;;;;;5130874;27;20522;-74
2022/03/05 07:59:21;;;;;;;18.02;10.90;;;;;;;;;;5130802;27;20078;-75
2022/03/05 08:01:47;;;;;;;16.25;11.18;;;;;;;;;;5112688;28;20085;-75
2022/03/05 08:04:13;;;;;;;19.45;10.57;;;;;;;;;;5131367;28;20040;-75
2022/03/05 08:06:40;;;;;;;16.83;10.27;;;;;;;;;;5113164;28;20051;-75
2022/03/05 08:09:06;;;;;;;17.60;11.70;;;;;;;;;;5131502;28;20486;-75
2022/03/05 08:11:32;;;;;;;18.98;12.02;;;;;;;;;;5112646;27;20138;-75
2022/03/05 08:13:58;;;;;;;19.88;11.88;;;;;;;;;;5130647;27;20472;-75
2022/03/05 08:16:24;;;;;;;18.98;11.77;;;;;;;;;;5130676;27;20126;-75
2022/03/05 08:18:50;;;;;;;19.80;12.40;;;;;;;;;;5130732;28;20071;-75
2022/03/05 08:21:16;;;;;;;20.63;11.13;;;;;;;;;;5130573;28;20122;-75
2022/03/05 08:23:43;;;;;;;18.80;12.77;;;;;;;;;;5130525;27;20489;-75
2022/03/05 08:26:13;;;;;;;20.48;12.75;;;;;;;;;;5095238;28;20132;-76
2022/03/05 08:28:41;;;;;;;21.23;13.38;;;;;;;;;;5112145;28;20089;-76
2022/03/05 08:31:07;;;;;;;18.92;11.95;;;;;;;;;;5130365;27;20043;-75
2022/03/05 08:33:33;;;;;;;20.70;12.75;;;;;;;;;;5130454;27;20404;-77
2022/03/05 08:35:59;;;;;;;20.95;13.75;;;;;;;;;;5111957;28;20088;-76
2022/03/05 08:38:25;;;;;;;20.67;13.45;;;;;;;;;;5111815;28;20130;-76
2022/03/05 08:40:52;;;;;;;23.90;14.10;;;;;;;;;;5112102;28;20415;-76
2022/03/05 08:43:18;;;;;;;21.73;14.13;;;;;;;;;;5130286;27;20096;-76
2022/03/05 08:45:44;;;;;;;19.52;12.40;;;;;;;;;;5112164;28;20097;-77
2022/03/05 08:48:10;;;;;;;22.92;13.55;;;;;;;;;;5129987;27;20118;-76
2022/03/05 08:50:36;;;;;;;22.45;13.30;;;;;;;;;;5112017;28;20122;-76
2022/03/05 08:53:03;;;;;;;22.80;14.35;;;;;;;;;;5111394;28;20117;-75
2022/03/05 08:55:29;;;;;;;22.88;14.05;;;;;;;;;;5129651;28;20056;-76
2022/03/05 08:57:55;;;;;;;19.77;14.18;;;;;;;;;;5094900;28;20078;-75
2022/03/05 09:00:21;;;;;;;21.42;13.90;;;;;;;;;;5129764;27;20047;-76
2022/03/05 09:02:47;;;;;;;22.77;13.68;;;;;;;;;;5129801;28;20051;-76
2022/03/05 09:05:14;;;;;;;21.98;13.55;;;;;;;;;;5129732;27;20089;-77
2022/03/05 09:07:41;;;;;;;21.58;13.63;;;;;;;;;;5119393;27;20074;-77
2022/03/05 09:10:08;;;;;;;23.75;14.85;;;;;;;;;;5116051;28;20068;-76
2022/03/05 09:12:34;;;;;;;21.40;14.18;;;;;;;;;;5097946;28;20039;-76
2022/03/05 09:15:00;;;;;;;21.45;12.35;;;;;;;;;;5115720;28;20047;-76
2022/03/05 09:17:26;;;;;;;25.65;14.70;;;;;;;;;;5115867;28;20040;-77
2022/03/05 09:19:53;;;;;;;22.05;13.70;;;;;;;;;;5115632;28;20051;-77
2022/03/05 09:22:20;;;;;;;25.40;15.18;;;;;;;;;;5115536;28;20044;-76
2022/03/05 09:24:46;;;;;;;23.27;15.27;;;;;;;;;;5097368;28;20084;-76
2022/03/05 09:27:12;;;;;;;23.42;14.38;;;;;;;;;;5115716;28;20043;-76
2022/03/05 09:29:38;;;;;;;23.65;14.80;;;;;;;;;;5097641;28;20096;-77
2022/03/05 09:32:04;;;;;;;22.85;14.77;;;;;;;;;;5097387;28;20096;-75
2022/03/05 09:34:31;;;;;;;26.15;16.15;;;;;;;;;;5097068;28;20499;-77
2022/03/05 09:36:57;;;;;;;24.48;15.25;;;;;;;;;;5097392;28;20043;-78
2022/03/05 09:39:23;;;;;;;26.60;15.27;;;;;;;;;;5115505;28;20065;-76
2022/03/05 09:41:49;;;;;;;22.52;14.68;;;;;;;;;;5097167;28;20122;-76
2022/03/05 09:44:15;;;;;;;26.58;14.85;;;;;;;;;;5097297;28;20083;-78
2022/03/05 09:46:43;;;;;;;25.13;16.60;;;;;;;;;;5096685;28;20047;-77
2022/03/05 09:49:09;;;;;;;21.50;13.82;;;;;;;;;;5115062;28;20522;-76
2022/03/05 09:51:35;;;;;;;23.17;15.15;;;;;;;;;;5115437;28;20493;-77
2022/03/05 09:54:02;;;;;;;24.60;15.55;;;;;;;;;;5115228;28;20039;-77
2022/03/05 09:56:28;;;;;;;26.70;16.17;;;;;;;;;;5114847;28;20051;-76
2022/03/05 09:58:55;;;;;;;23.50;15.25;;;;;;;;;;5114860;28;20046;-77
2022/03/05 10:01:21;;;;;;;26.40;16.67;;;;;;;;;;5114908;28;20036;-75
2022/03/05 10:03:57;;;;;;;25.83;15.77;;;;;;;;;;5114644;28;20099;-75
2022/03/05 10:06:28;;;;;;;25.35;16.50;;;;;;;;;;5114771;28;20045;-75
2022/03/05 10:08:57;;;;;;;22.95;13.88;;;;;;;;;;5114780;28;20395;-76
2022/03/05 10:11:37;;;;;;;26.80;16.17;;;;;;;;;;5114598;28;20044;-75
2022/03/05 10:14:14;;;;;;;25.05;15.77;;;;;;;;;;5114355;28;20640;-75
2022/03/05 10:16:40;;;;;;;27.25;17.33;;;;;;;;;;5114438;28;20044;-76
2022/03/05 10:19:17;;;;;;;25.88;16.02;;;;;;;;;;5113471;28;20041;-76
2022/03/05 10:21:55;;;;;;;25.90;15.88;;;;;;;;;;5114449;28;20036;-76
2022/03/05 10:24:29;;;;;;;27.77;16.23;;;;;;;;;;5114408;28;20043;-77
2022/03/05 10:26:57;;;;;;;29.48;16.83;;;;;;;;;;5114650;28;20043;-77
2022/03/05 10:29:27;;;;;;;26.40;17.17;;;;;;;;;;5096543;28;20051;-77
2022/03/05 10:32:04;;;;;;;26.85;17.15;;;;;;;;;;5114514;28;20083;-77
2022/03/05 10:34:51;;;;;;;26.65;16.60;;;;;;;;;;5096966;28;20039;-78
2022/03/05 10:37:18;;;;;;;24.92;15.95;;;;;;;;;;5085298;27;20114;-77
2022/03/05 10:39:45;;;;;;;26.42;16.40;;;;;;;;;;5096157;28;20048;-76
2022/03/05 10:42:17;;;;;;;27.75;17.08;;;;;;;;;;5114372;27;20031;-76
2022/03/05 10:44:44;;;;;;;26.90;17.35;;;;;;;;;;5094607;27;20087;-76
2022/03/05 10:47:10;;;;;;;27.60;17.08;;;;;;;;;;5130574;27;20044;-78
2022/03/05 10:49:37;;;;;;;26.02;16.58;;;;;;;;;;5113988;28;20039;-77
2022/03/05 10:52:05;;;;;;;25.13;16.48;;;;;;;;;;5097698;27;20039;-77
2022/03/05 10:54:35;;;;;;;27.48;17.05;;;;;;;;;;5116089;27;20129;-77
2022/03/05 10:57:15;;;;;;;27.30;16.25;;;;;;;;;;5132572;27;20105;-76
2022/03/05 10:59:45;;;;;;;28.58;17.38;;;;;;;;;;5096451;27;20047;-76
2022/03/05 11:02:13;;;;;;;23.27;15.43;;;;;;;;;;5134256;27;20067;-76
2022/03/05 11:04:42;;;;;;;25.63;17.50;;;;;;;;;;5115949;27;20047;-76
2022/03/05 11:07:09;;;;;;;27.95;15.85;;;;;;;;;;5116121;27;20417;-75
2022/03/05 11:09:36;;;;;;;30.58;17.27;;;;;;;;;;5134301;27;20050;-75
2022/03/05 11:12:02;;;;;;;28.73;18.17;;;;;;;;;;5115926;27;20407;-76
2022/03/05 11:14:29;;;;;;;27.85;17.27;;;;;;;;;;5133986;27;20043;-76
2022/03/05 11:16:56;;;;;;;26.45;16.67;;;;;;;;;;5133778;27;20133;-76
2022/03/05 11:19:22;;;;;;;28.25;17.95;;;;;;;;;;5134085;27;20545;-75
2022/03/05 11:21:48;;;;;;;29.58;17.05;;;;;;;;;;5134021;27;20078;-75
2022/03/05 11:24:16;;;;;;;26.38;16.40;;;;;;;;;;5115923;27;20499;-76
2022/03/05 11:26:42;;;;;;;27.17;17.38;;;;;;;;;;5133844;27;20054;-76
2022/03/05 11:29:08;;;;;;;26.67;17.67;;;;;;;;;;5115547;27;20043;-76
2022/03/05 11:31:35;;;;;;;24.60;15.93;;;;;;;;;;5133548;27;20035;-76
2022/03/05 11:34:14;;;;;;;26.65;16.95;;;;;;;;;;5134041;27;20031;-75
2022/03/05 11:36:41;;;;;;;22.70;14.75;;;;;;;;;;5133653;27;20039;-76
2022/03/05 11:39:18;;;;;;;25.83;17.17;;;;;;;;;;5133581;27;20131;-77
2022/03/05 11:41:48;;;;;;;27.27;18.30;;;;;;;;;;5115191;27;20092;-76
2022/03/05 11:44:15;;;;;;;29.42;17.33;;;;;;;;;;5133743;27;20125;-76
2022/03/05 11:46:41;;;;;;;28.48;16.90;;;;;;;;;;5133868;27;20043;-76
2022/03/05 11:49:09;;;;;;;27.88;17.77;;;;;;;;;;5133419;27;20095;-75
2022/03/05 11:51:50;;;;;;;25.60;17.45;;;;;;;;;;5133596;27;20077;-76
2022/03/05 11:54:19;;;;;;;28.75;17.52;;;;;;;;;;5133414;27;20043;-77
2022/03/05 11:57:04;;;;;;;29.15;17.10;;;;;;;;;;5114745;27;20062;-77
2022/03/05 11:59:31;;;;;;;26.60;17.50;;;;;;;;;;5133298;28;20083;-76
2022/03/05 12:01:57;;;;;;;25.27;17.38;;;;;;;;;;5114898;28;20043;-75
2022/03/05 12:04:24;;;;;;;26.70;17.13;;;;;;;;;;5115119;28;20055;-76
2022/03/05 12:06:56;;;;;;;27.33;17.27;;;;;;;;;;5132981;27;20050;-76
2022/03/05 12:09:22;;;;;;;;;;;;;;;;;;5115789;28;20047;-73
2022/03/05 12:11:55;;;;;;;31.80;18.10;;;;;;;;;;5114100;27;20017;-76
2022/03/05 12:14:21;;;;;;;29.15;17.92;;;;;;;;;;5120020;27;20058;-75
2022/03/05 12:16:48;;;;;;;27.00;16.55;;;;;;;;;;5086084;28;20055;-75
2022/03/05 12:19:15;;;;;;;28.17;18.23;;;;;;;;;;5112521;27;20392;-72
2022/03/05 12:21:41;;;;;;;27.20;17.85;;;;;;;;;;5089785;28;20043;-76
2022/03/05 12:24:09;;;;;;;28.35;19.40;;;;;;;;;;5100956;28;20127;-77
2022/03/05 12:26:50;;;;;;;28.33;18.05;;;;;;;;;;5099275;28;20093;-74
2022/03/05 12:29:16;;;;;;;;;;;;;;;;;;5094686;28;20032;-75
2022/03/05 12:31:43;;;;;;;29.98;18.52;;;;;;;;;;5099971;27;19961;-76
2022/03/05 12:34:10;;;;;;;29.60;19.15;;;;;;;;;;5129982;27;20074;-75
2022/03/05 12:36:46;;;;;;;29.85;18.90;;;;;;;;;;5112614;28;20043;-79
2022/03/05 12:39:14;;;;;;;31.52;18.52;;;;;;;;;;5132418;27;20050;-76
2022/03/05 12:41:41;;;;;;;29.50;18.98;;;;;;;;;;5132932;27;20095;-76
2022/03/05 12:44:11;;;;;;;29.70;18.65;;;;;;;;;;5136743;27;20369;-76
2022/03/05 12:46:37;;;;;;;27.92;18.33;;;;;;;;;;5118812;27;20043;-76
2022/03/05 12:49:07;;;;;;;30.63;19.70;;;;;;;;;;5136898;27;20618;-77
2022/03/05 12:51:33;;;;;;;31.63;18.65;;;;;;;;;;5136848;27;20035;-76
2022/03/05 12:54:00;;;;;;;32.50;19.02;;;;;;;;;;5118514;27;20046;-77
2022/03/05 12:56:27;;;;;;;30.10;19.60;;;;;;;;;;5136604;27;20057;-77
2022/03/05 12:58:56;;;;;;;33.13;21.02;;;;;;;;;;5136398;27;20051;-76
2022/03/05 13:01:22;;;;;;;29.85;19.02;;;;;;;;;;5136761;27;20103;-76
2022/03/05 13:03:48;;;;;;;28.88;18.95;;;;;;;;;;5136540;27;20487;-76
2022/03/05 13:06:14;;;;;;;29.50;19.33;;;;;;;;;;5136582;27;20142;-77
2022/03/05 13:08:41;;;;;;;29.40;17.83;;;;;;;;;;5136573;27;20100;-77
2022/03/05 13:11:09;;;;;;;29.13;19.00;;;;;;;;;;5136612;27;20126;-76
2022/03/05 13:13:40;;;;;;;28.75;18.67;;;;;;;;;;5136110;27;20096;-76
2022/03/05 13:16:08;;;;;;;31.50;19.15;;;;;;;;;;5136414;27;20078;-76
2022/03/05 13:18:34;;;;;;;29.80;19.17;;;;;;;;;;5136279;27;20042;-76
2022/03/05 13:21:04;;;;;;;30.13;19.63;;;;;;;;;;5136200;27;20071;-76
2022/03/05 13:23:31;;;;;;;28.30;19.63;;;;;;;;;;5136273;27;20046;-77
2022/03/05 13:25:57;;;;;;;28.75;18.55;;;;;;;;;;5117665;27;20416;-77
2022/03/05 13:28:26;;;;;;;30.15;19.25;;;;;;;;;;5118146;27;20039;-76
2022/03/05 13:30:53;;;;;;;28.55;18.95;;;;;;;;;;5136166;27;20476;-77
2022/03/05 13:33:38;;;;;;;27.00;18.02;;;;;;;;;;5100998;27;20046;-76
2022/03/05 13:36:12;;;;;;;27.45;18.30;;;;;;;;;;5117674;27;20043;-77
2022/03/05 13:38:38;;;;;;;28.75;19.10;;;;;;;;;;5117867;27;20042;-76
2022/03/05 13:41:05;;;;;;;28.27;19.08;;;;;;;;;;5117730;27;20067;-77
2022/03/05 13:43:34;;;;;;;25.60;17.67;;;;;;;;;;5135809;27;20484;-77
2022/03/05 13:46:00;;;;;;;26.95;18.40;;;;;;;;;;5117669;27;20035;-76
2022/03/05 13:48:27;;;;;;;27.67;18.35;;;;;;;;;;5117388;27;20563;-76
2022/03/05 13:50:53;;;;;;;29.52;18.45;;;;;;;;;;5135711;27;20043;-77
2022/03/05 13:53:21;;;;;;;30.35;18.73;;;;;;;;;;5117185;27;20042;-77
2022/03/05 13:56:00;;;;;;;28.55;18.92;;;;;;;;;;5117198;27;20484;-76
2022/03/05 13:58:26;;;;;;;28.63;18.90;;;;;;;;;;5135558;27;20043;-78
2022/03/05 14:00:52;;;;;;;28.20;17.55;;;;;;;;;;5135328;27;20543;-77
2022/03/05 14:03:18;;;;;;;28.55;17.17;;;;;;;;;;5117143;27;20043;-76
2022/03/05 14:05:44;;;;;;;25.83;17.88;;;;;;;;;;5135499;27;20384;-77
2022/03/05 14:08:11;;;;;;;26.40;17.27;;;;;;;;;;5135640;27;20039;-76
2022/03/05 14:10:39;;;;;;;28.88;18.38;;;;;;;;;;5135420;27;20043;-76
2022/03/05 14:13:05;;;;;;;30.23;19.15;;;;;;;;;;5135501;27;20051;-78
2022/03/05 14:15:32;;;;;;;27.05;17.63;;;;;;;;;;5135560;27;20130;-77
2022/03/05 14:18:11;;;;;;;27.05;17.70;;;;;;;;;;5117033;27;20088;-76
2022/03/05 14:20:42;;;;;;;26.33;17.35;;;;;;;;;;5135284;27;20038;-76
2022/03/05 14:23:12;;;;;;;28.55;18.00;;;;;;;;;;5118284;27;20039;-76
2022/03/05 14:25:38;;;;;;;26.85;17.15;;;;;;;;;;5122216;27;20071;-76